Port Au Choix, Canada
Current Conditions -  °F | °C
As of 12:00 PM on Thursday 23 Oct 2014 (Local Time) from CWDH Reporting Station
Clear Clear  
Wind Chill:   Ceiling: Unl
Heat Index:   Visibility: 9mi
Dew Point:   Wind: 5mph
Humidity: 63%   Direction: 220°SW
Pressure: 30.33"   Gusts: NA
Location:  50.72°N, 57.37°W
Report Text: CWDH 231400Z AUTO 22004KT 9SM NSC 06/M00 A3033 RMK SLP272 T00651002 WSI/SWOB
Loading
Personal Weather Stations






























Interactive Weather Map
Tropical Storm Tracking
New forecast layout! Learn more

10-Day Weather Forecast

Advertisements
Track Severe Weather on mobile